createdAt,value
2017-05-12T00:00:22.773Z,998.41
2017-05-12T00:01:03.433Z,998.37
2017-05-12T00:01:44.033Z,998.36
2017-05-12T00:02:24.657Z,998.36
2017-05-12T00:03:05.275Z,998.34
2017-05-12T00:03:45.842Z,998.34
2017-05-12T00:04:26.437Z,998.34
2017-05-12T00:05:07.006Z,998.33
2017-05-12T00:05:47.585Z,998.31
2017-05-12T00:06:28.195Z,998.32
2017-05-12T00:07:08.794Z,998.31
2017-05-12T00:07:49.350Z,998.31
2017-05-12T00:08:29.927Z,998.32
2017-05-12T00:09:10.505Z,998.31
2017-05-12T00:09:51.108Z,998.32
2017-05-12T00:10:31.673Z,998.34
2017-05-12T00:11:12.258Z,998.38
2017-05-12T00:11:52.878Z,998.36
2017-05-12T00:12:33.490Z,998.38
2017-05-12T00:13:14.078Z,998.38
2017-05-12T00:13:54.635Z,998.34
2017-05-12T00:14:35.216Z,998.35
2017-05-12T00:15:15.780Z,998.39
2017-05-12T00:15:56.377Z,998.36
2017-05-12T00:16:36.956Z,998.34
2017-05-12T00:17:17.581Z,998.36
2017-05-12T00:17:58.193Z,998.37
2017-05-12T00:18:38.874Z,998.4
2017-05-12T00:19:19.420Z,998.39
2017-05-12T00:19:59.995Z,998.39
2017-05-12T00:20:40.579Z,998.41
2017-05-12T00:21:21.189Z,998.44
2017-05-12T00:22:01.768Z,998.42
2017-05-12T00:22:42.359Z,998.38
2017-05-12T00:23:22.938Z,998.4
2017-05-12T00:24:03.567Z,998.37
2017-05-12T00:24:44.208Z,998.34
2017-05-12T00:25:24.816Z,998.35
2017-05-12T00:26:05.401Z,998.3
2017-05-12T00:26:46.005Z,998.35
2017-05-12T00:27:26.584Z,998.4
2017-05-12T00:28:07.183Z,998.35
2017-05-12T00:28:47.756Z,998.36
2017-05-12T00:29:28.316Z,998.39
2017-05-12T00:30:08.915Z,998.38
2017-05-12T00:30:49.503Z,998.4
2017-05-12T00:31:30.106Z,998.4
2017-05-12T00:32:10.683Z,998.38
2017-05-12T00:32:51.280Z,998.38
2017-05-12T00:33:31.886Z,998.37
2017-05-12T00:34:12.513Z,998.39
2017-05-12T00:34:53.100Z,998.36
2017-05-12T00:35:33.694Z,998.37
2017-05-12T00:36:14.300Z,998.37
2017-05-12T00:36:54.907Z,998.4
2017-05-12T00:37:35.505Z,998.35
2017-05-12T00:38:16.065Z,998.37
2017-05-12T00:38:56.641Z,998.4
2017-05-12T00:39:37.218Z,998.44
2017-05-12T00:40:17.807Z,998.46
2017-05-12T00:40:58.401Z,998.4
2017-05-12T00:41:38.988Z,998.43
2017-05-12T00:42:19.581Z,998.4
2017-05-12T00:43:00.154Z,998.4
2017-05-12T00:43:40.730Z,998.4
2017-05-12T00:44:21.361Z,998.41
2017-05-12T00:45:01.929Z,998.42
2017-05-12T00:45:42.537Z,998.42
2017-05-12T00:46:23.132Z,998.41
2017-05-12T00:47:03.733Z,998.43
2017-05-12T00:47:44.319Z,998.43
2017-05-12T00:48:24.927Z,998.37
2017-05-12T00:49:05.613Z,998.41
2017-05-12T00:49:46.194Z,998.37
2017-05-12T00:50:26.781Z,998.37
2017-05-12T00:51:07.351Z,998.37
2017-05-12T00:51:47.945Z,998.38
2017-05-12T00:52:28.548Z,998.39
2017-05-12T00:53:09.141Z,998.38
2017-05-12T00:53:49.695Z,998.43
2017-05-12T00:54:30.283Z,998.38
2017-05-12T00:55:10.862Z,998.42
2017-05-12T00:55:51.444Z,998.43
2017-05-12T00:56:32.039Z,998.42
2017-05-12T00:57:12.673Z,998.47
2017-05-12T00:57:53.278Z,998.43
2017-05-12T00:58:33.861Z,998.42
2017-05-12T00:59:14.452Z,998.43
2017-05-12T00:59:55.031Z,998.4
2017-05-12T01:00:35.651Z,998.43
2017-05-12T01:01:16.353Z,998.39
2017-05-12T01:01:56.930Z,998.4
2017-05-12T01:02:37.572Z,998.39
2017-05-12T01:03:18.165Z,998.4
2017-05-12T01:03:58.752Z,998.42
2017-05-12T01:04:39.361Z,998.45
2017-05-12T01:05:19.915Z,998.42
2017-05-12T01:06:00.501Z,998.45
2017-05-12T01:06:41.119Z,998.43
2017-05-12T01:07:21.746Z,998.41
2017-05-12T01:08:02.366Z,998.44
2017-05-12T01:08:42.985Z,998.4
2017-05-12T01:09:23.580Z,998.39
2017-05-12T01:10:04.167Z,998.37
2017-05-12T01:10:44.773Z,998.39
2017-05-12T01:11:25.362Z,998.34
2017-05-12T01:12:05.946Z,998.33
2017-05-12T01:12:46.530Z,998.32
2017-05-12T01:13:27.095Z,998.34
2017-05-12T01:14:07.670Z,998.33
2017-05-12T01:14:48.315Z,998.32
2017-05-12T01:15:28.857Z,998.31
2017-05-12T01:16:09.458Z,998.33
2017-05-12T01:16:50.038Z,998.32
2017-05-12T01:17:30.619Z,998.34
2017-05-12T01:18:11.197Z,998.27
2017-05-12T01:18:51.765Z,998.34
2017-05-12T01:19:32.340Z,998.38
2017-05-12T01:20:12.911Z,998.34
2017-05-12T01:20:53.506Z,998.34
2017-05-12T01:21:34.162Z,998.32
2017-05-12T01:22:14.761Z,998.31
2017-05-12T01:22:55.352Z,998.35
2017-05-12T01:23:35.929Z,998.34
2017-05-12T01:24:16.506Z,998.36
2017-05-12T01:24:57.103Z,998.35
2017-05-12T01:25:37.728Z,998.3
2017-05-12T01:26:18.310Z,998.32
2017-05-12T01:26:58.888Z,998.32
2017-05-12T01:27:39.489Z,998.33
2017-05-12T01:28:20.075Z,998.31
2017-05-12T01:29:00.682Z,998.31
2017-05-12T01:29:41.273Z,998.24
2017-05-12T01:30:21.846Z,998.28
2017-05-12T01:31:02.448Z,998.29
2017-05-12T01:31:43.022Z,998.26
2017-05-12T01:32:23.603Z,998.29
2017-05-12T01:33:04.211Z,998.25
2017-05-12T01:33:44.813Z,998.24
2017-05-12T01:34:25.402Z,998.25
2017-05-12T01:35:05.994Z,998.23
2017-05-12T01:35:46.628Z,998.24
2017-05-12T01:36:27.202Z,998.26
2017-05-12T01:37:07.771Z,998.22
2017-05-12T01:37:48.376Z,998.18
2017-05-12T01:38:28.963Z,998.25
2017-05-12T01:39:09.562Z,998.22
2017-05-12T01:39:50.166Z,998.25
2017-05-12T01:40:30.809Z,998.27
2017-05-12T01:41:11.383Z,998.23
2017-05-12T01:41:51.968Z,998.26
2017-05-12T01:42:32.557Z,998.25
2017-05-12T01:43:13.119Z,998.25
2017-05-12T01:43:53.731Z,998.27
2017-05-12T01:44:34.333Z,998.26
2017-05-12T01:45:14.929Z,998.27
2017-05-12T01:45:55.502Z,998.24
2017-05-12T01:46:36.103Z,998.23
2017-05-12T01:47:16.694Z,998.24
2017-05-12T01:47:57.280Z,998.24
2017-05-12T01:48:37.904Z,998.25
2017-05-12T01:49:18.527Z,998.19
2017-05-12T01:49:59.116Z,998.23
2017-05-12T01:50:39.693Z,998.25
2017-05-12T01:51:20.283Z,998.23
2017-05-12T01:52:00.877Z,998.22
2017-05-12T01:52:41.458Z,998.24
2017-05-12T01:53:22.049Z,998.25
2017-05-12T01:54:02.657Z,998.23
2017-05-12T01:54:43.243Z,998.22
2017-05-12T01:55:23.842Z,998.24
2017-05-12T01:56:04.411Z,998.24
2017-05-12T01:56:45.003Z,998.24
2017-05-12T01:57:25.578Z,998.25
2017-05-12T01:58:06.175Z,998.2
2017-05-12T01:58:46.752Z,998.22
2017-05-12T01:59:27.325Z,998.23
2017-05-12T02:00:07.924Z,998.23
2017-05-12T02:00:48.505Z,998.28
2017-05-12T02:01:29.076Z,998.23
2017-05-12T02:02:09.652Z,998.24
2017-05-12T02:02:50.238Z,998.22
2017-05-12T02:03:30.807Z,998.2
2017-05-12T02:04:11.394Z,998.22
2017-05-12T02:04:51.974Z,998.17
2017-05-12T02:05:32.562Z,998.19
2017-05-12T02:06:13.196Z,998.21
2017-05-12T02:06:53.778Z,998.18
2017-05-12T02:07:34.352Z,998.26
2017-05-12T02:08:14.932Z,998.25
2017-05-12T02:08:55.503Z,998.28
2017-05-12T02:09:36.130Z,998.3
2017-05-12T02:10:16.673Z,998.28
2017-05-12T02:10:57.265Z,998.25
2017-05-12T02:11:37.864Z,998.29
2017-05-12T02:12:18.453Z,998.26
2017-05-12T02:12:59.072Z,998.28
2017-05-12T02:13:39.729Z,998.19
2017-05-12T02:14:20.325Z,998.23
2017-05-12T02:15:00.944Z,998.2
2017-05-12T02:15:41.585Z,998.18
2017-05-12T02:16:22.184Z,998.14
2017-05-12T02:17:02.765Z,998.15
2017-05-12T02:17:43.379Z,998.14
2017-05-12T02:18:23.971Z,998.16
2017-05-12T02:19:04.551Z,998.11
2017-05-12T02:19:45.162Z,998.1
2017-05-12T02:20:25.752Z,998.13
2017-05-12T02:21:06.371Z,998.11
2017-05-12T02:21:46.962Z,998.1
2017-05-12T02:22:27.567Z,998.04
2017-05-12T02:23:08.167Z,998.05
2017-05-12T02:23:48.747Z,998.07
2017-05-12T02:24:29.332Z,998.03
2017-05-12T02:25:09.929Z,998.05
2017-05-12T02:25:50.521Z,998.05
2017-05-12T02:26:31.163Z,998.07
2017-05-12T02:27:11.791Z,998.03
2017-05-12T02:27:52.401Z,997.99
2017-05-12T02:28:32.984Z,998.01
2017-05-12T02:29:13.581Z,998
2017-05-12T02:29:54.195Z,998.02
2017-05-12T02:30:34.777Z,997.99
2017-05-12T02:31:15.362Z,998
2017-05-12T02:31:55.947Z,997.95
2017-05-12T02:32:36.817Z,997.95
2017-05-12T02:33:17.420Z,997.96
2017-05-12T02:33:58.009Z,997.97
2017-05-12T02:34:38.691Z,997.97
2017-05-12T02:35:19.296Z,997.97
2017-05-12T02:35:59.900Z,997.97
2017-05-12T02:36:40.463Z,997.97
2017-05-12T02:37:21.041Z,998.01
2017-05-12T02:38:01.632Z,997.96
2017-05-12T02:38:42.188Z,998
2017-05-12T02:39:22.777Z,998
2017-05-12T02:40:03.377Z,998.02
2017-05-12T02:40:43.958Z,997.98
2017-05-12T02:41:24.574Z,997.97
2017-05-12T02:42:05.157Z,998.01
2017-05-12T02:42:45.722Z,998
2017-05-12T02:43:26.343Z,997.96
2017-05-12T02:44:06.927Z,997.96
2017-05-12T02:44:47.509Z,997.96
2017-05-12T02:45:28.113Z,997.97
2017-05-12T02:46:08.682Z,997.97
2017-05-12T02:46:49.268Z,998
2017-05-12T02:47:29.850Z,997.97
2017-05-12T02:48:10.444Z,997.96
2017-05-12T02:48:51.051Z,997.96
2017-05-12T02:49:31.640Z,997.95
2017-05-12T02:50:12.347Z,998
2017-05-12T02:50:52.954Z,997.94
2017-05-12T02:51:33.556Z,997.95
2017-05-12T02:52:14.123Z,997.89
2017-05-12T02:52:54.740Z,997.87
2017-05-12T02:53:35.328Z,997.91
2017-05-12T02:54:15.927Z,997.9
2017-05-12T02:54:56.491Z,997.86
2017-05-12T02:55:37.066Z,997.88
2017-05-12T02:56:17.684Z,997.99
2017-05-12T02:56:58.252Z,997.91
2017-05-12T02:57:38.838Z,997.93
2017-05-12T02:58:19.426Z,997.85
2017-05-12T02:59:00.057Z,997.85
2017-05-12T02:59:40.660Z,997.85
2017-05-12T03:00:21.347Z,997.92
2017-05-12T03:01:01.911Z,997.93
2017-05-12T03:01:42.513Z,997.93
2017-05-12T03:02:23.074Z,997.92
2017-05-12T03:03:03.662Z,997.93
2017-05-12T03:03:44.248Z,997.94
2017-05-12T03:04:24.828Z,997.88
2017-05-12T03:05:05.408Z,997.93
2017-05-12T03:05:46.003Z,997.9
2017-05-12T03:06:26.576Z,997.9
2017-05-12T03:07:07.178Z,997.88
2017-05-12T03:07:47.821Z,997.9
2017-05-12T03:08:28.410Z,997.88
2017-05-12T03:09:08.980Z,997.91
2017-05-12T03:09:49.564Z,997.9
2017-05-12T03:10:30.154Z,997.9
2017-05-12T03:11:10.761Z,997.91
2017-05-12T03:11:51.341Z,997.9
2017-05-12T03:12:31.964Z,997.9
2017-05-12T03:13:12.547Z,997.9
2017-05-12T03:13:53.170Z,997.9
2017-05-12T03:14:33.792Z,997.96
2017-05-12T03:15:14.350Z,997.97
2017-05-12T03:15:54.910Z,997.92
2017-05-12T03:16:35.503Z,997.94
2017-05-12T03:17:16.094Z,997.92
2017-05-12T03:17:56.711Z,997.94
2017-05-12T03:18:37.305Z,997.96
2017-05-12T03:19:17.908Z,997.97
2017-05-12T03:19:58.495Z,997.99
2017-05-12T03:20:39.061Z,998.02
2017-05-12T03:21:19.642Z,998.02
2017-05-12T03:22:00.237Z,998.02
2017-05-12T03:22:40.826Z,998.03
2017-05-12T03:23:21.415Z,998.05
2017-05-12T03:24:01.992Z,998
2017-05-12T03:24:42.630Z,998.06
2017-05-12T03:25:23.231Z,998.04
2017-05-12T03:26:03.839Z,998.05
2017-05-12T03:26:44.445Z,998.09
2017-05-12T03:27:25.038Z,998.07
2017-05-12T03:28:05.629Z,998.11
2017-05-12T03:28:46.212Z,998.14
2017-05-12T03:29:26.803Z,998.15
2017-05-12T03:30:07.380Z,998.14
2017-05-12T03:30:47.949Z,998.17
2017-05-12T03:31:28.523Z,998.21
2017-05-12T03:32:09.109Z,998.19
2017-05-12T03:32:49.687Z,998.18
2017-05-12T03:33:30.269Z,998.19
2017-05-12T03:34:10.861Z,998.19
2017-05-12T03:34:51.461Z,998.2
2017-05-12T03:35:32.014Z,998.23
2017-05-12T03:36:12.613Z,998.25
2017-05-12T03:36:53.198Z,998.22
2017-05-12T03:37:33.780Z,998.22
2017-05-12T03:38:14.367Z,998.2
2017-05-12T03:38:54.956Z,998.19
2017-05-12T03:39:35.524Z,998.22
2017-05-12T03:40:16.104Z,998.23
2017-05-12T03:40:56.799Z,998.22
2017-05-12T03:41:37.430Z,998.29
2017-05-12T03:42:18.029Z,998.25
2017-05-12T03:42:58.636Z,998.24
2017-05-12T03:43:39.226Z,998.27
2017-05-12T03:44:19.813Z,998.27
2017-05-12T03:45:00.513Z,998.29
2017-05-12T03:45:41.060Z,998.35
2017-05-12T03:46:21.667Z,998.32
2017-05-12T03:47:02.240Z,998.35
2017-05-12T03:47:42.841Z,998.35
2017-05-12T03:48:23.429Z,998.36
2017-05-12T03:49:04.019Z,998.33
2017-05-12T03:49:44.608Z,998.33
2017-05-12T03:50:25.189Z,998.3
2017-05-12T03:51:05.769Z,998.3
2017-05-12T03:51:46.332Z,998.29
2017-05-12T03:52:26.921Z,998.32
2017-05-12T03:53:07.494Z,998.29
2017-05-12T03:53:48.103Z,998.32
2017-05-12T03:54:28.736Z,998.31
2017-05-12T03:55:09.339Z,998.3
2017-05-12T03:55:49.967Z,998.28
2017-05-12T03:56:30.538Z,998.33
2017-05-12T03:57:11.158Z,998.36
2017-05-12T03:57:51.746Z,998.36
2017-05-12T03:58:32.351Z,998.36
2017-05-12T03:59:12.930Z,998.37
2017-05-12T03:59:55.342Z,998.34
2017-05-12T04:00:35.977Z,998.35
2017-05-12T04:01:16.555Z,998.35
2017-05-12T04:01:57.212Z,998.3
2017-05-12T04:02:37.857Z,998.34
2017-05-12T04:03:18.451Z,998.34
2017-05-12T04:03:59.013Z,998.31
2017-05-12T04:04:39.596Z,998.32
2017-05-12T04:05:20.183Z,998.34
2017-05-12T04:06:00.767Z,998.35
2017-05-12T04:06:41.425Z,998.34
2017-05-12T04:07:22.019Z,998.31
2017-05-12T04:08:02.635Z,998.33
2017-05-12T04:08:43.216Z,998.34
2017-05-12T04:09:23.796Z,998.32
2017-05-12T04:10:04.389Z,998.37
2017-05-12T04:10:44.981Z,998.36
2017-05-12T04:11:25.591Z,998.37
2017-05-12T04:12:06.177Z,998.34
2017-05-12T04:12:46.762Z,998.37
2017-05-12T04:13:27.336Z,998.38
2017-05-12T04:14:07.930Z,998.43
2017-05-12T04:14:48.549Z,998.38
2017-05-12T04:15:29.167Z,998.41
2017-05-12T04:16:09.782Z,998.4
2017-05-12T04:16:50.377Z,998.4
2017-05-12T04:17:30.966Z,998.37
2017-05-12T04:18:11.568Z,998.42
2017-05-12T04:18:52.148Z,998.45
2017-05-12T04:19:32.721Z,998.47
2017-05-12T04:20:13.300Z,998.45
2017-05-12T04:20:53.913Z,998.45
2017-05-12T04:21:34.499Z,998.46
2017-05-12T04:22:15.072Z,998.49
2017-05-12T04:22:55.671Z,998.39
2017-05-12T04:23:36.279Z,998.45
2017-05-12T04:24:16.865Z,998.45
2017-05-12T04:24:57.474Z,998.45
2017-05-12T04:25:38.072Z,998.43
2017-05-12T04:26:18.677Z,998.48
2017-05-12T04:26:59.275Z,998.46
2017-05-12T04:27:39.850Z,998.49
2017-05-12T04:28:20.457Z,998.47
2017-05-12T04:29:01.043Z,998.48
2017-05-12T04:29:41.639Z,998.47
2017-05-12T04:30:22.226Z,998.48
2017-05-12T04:31:02.808Z,998.47
2017-05-12T04:31:43.408Z,998.49
2017-05-12T04:32:24.003Z,998.47
2017-05-12T04:33:04.577Z,998.47
2017-05-12T04:33:45.143Z,998.45
2017-05-12T04:34:25.713Z,998.46
2017-05-12T04:35:06.334Z,998.5
2017-05-12T04:35:46.996Z,998.53
2017-05-12T04:36:27.578Z,998.51
2017-05-12T04:37:08.177Z,998.5
2017-05-12T04:37:48.763Z,998.55
2017-05-12T04:38:29.343Z,998.56
2017-05-12T04:39:09.937Z,998.55
2017-05-12T04:39:50.543Z,998.56
2017-05-12T04:40:31.138Z,998.56
2017-05-12T04:41:11.721Z,998.57
2017-05-12T04:41:52.305Z,998.62
2017-05-12T04:42:32.895Z,998.61
2017-05-12T04:43:13.482Z,998.58
2017-05-12T04:43:54.065Z,998.61
2017-05-12T04:44:34.644Z,998.64
2017-05-12T04:45:15.207Z,998.68
2017-05-12T04:45:55.878Z,998.69
2017-05-12T04:46:36.471Z,998.67
2017-05-12T04:47:17.053Z,998.61
2017-05-12T04:47:57.697Z,998.61
2017-05-12T04:48:38.287Z,998.64
2017-05-12T04:49:18.876Z,998.61
2017-05-12T04:49:59.472Z,998.59
2017-05-12T04:50:40.053Z,998.61
2017-05-12T04:51:20.634Z,998.6
2017-05-12T04:52:01.227Z,998.6
2017-05-12T04:52:41.832Z,998.6
2017-05-12T04:53:22.436Z,998.61
2017-05-12T04:54:03.057Z,998.63
2017-05-12T04:54:43.623Z,998.63
2017-05-12T04:55:24.215Z,998.61
2017-05-12T04:56:04.782Z,998.64
2017-05-12T04:56:45.391Z,998.62
2017-05-12T04:57:25.988Z,998.62
2017-05-12T04:58:06.585Z,998.63
2017-05-12T04:58:47.220Z,998.61
2017-05-12T04:59:27.795Z,998.64
2017-05-12T05:00:08.381Z,998.63
2017-05-12T05:00:48.955Z,998.61
2017-05-12T05:01:29.544Z,998.61
2017-05-12T05:02:10.107Z,998.61
2017-05-12T05:02:50.689Z,998.62
2017-05-12T05:03:31.337Z,998.59
2017-05-12T05:04:11.861Z,998.64
2017-05-12T05:04:52.461Z,998.66
2017-05-12T05:05:33.041Z,998.63
2017-05-12T05:06:13.624Z,998.62
2017-05-12T05:06:54.204Z,998.67
2017-05-12T05:07:34.806Z,998.58
2017-05-12T05:08:15.394Z,998.61
2017-05-12T05:08:55.970Z,998.61
2017-05-12T05:09:36.576Z,998.62
2017-05-12T05:10:17.189Z,998.61
2017-05-12T05:10:57.795Z,998.61
2017-05-12T05:11:38.379Z,998.6
2017-05-12T05:12:18.998Z,998.62
2017-05-12T05:12:59.591Z,998.61
2017-05-12T05:13:40.164Z,998.61
2017-05-12T05:14:20.748Z,998.64
2017-05-12T05:15:01.344Z,998.66
2017-05-12T05:15:41.960Z,998.64
2017-05-12T05:16:22.547Z,998.62
2017-05-12T05:17:03.128Z,998.62
2017-05-12T05:17:43.701Z,998.64
2017-05-12T05:18:24.308Z,998.63
2017-05-12T05:19:04.908Z,998.61
2017-05-12T05:19:45.493Z,998.61
2017-05-12T05:20:26.101Z,998.6
2017-05-12T05:21:06.677Z,998.64
2017-05-12T05:21:47.256Z,998.6
2017-05-12T05:22:27.820Z,998.62
2017-05-12T05:23:08.506Z,998.61
2017-05-12T05:23:49.081Z,998.59
2017-05-12T05:24:29.714Z,998.54
2017-05-12T05:25:10.289Z,998.58
2017-05-12T05:25:50.937Z,998.53
2017-05-12T05:26:31.525Z,998.54
2017-05-12T05:27:12.198Z,998.54
2017-05-12T05:27:52.767Z,998.56
2017-05-12T05:28:33.383Z,998.52
2017-05-12T05:29:13.965Z,998.51
2017-05-12T05:29:54.594Z,998.55
2017-05-12T05:30:35.164Z,998.55
2017-05-12T05:31:15.837Z,998.51
2017-05-12T05:31:56.473Z,998.59
2017-05-12T05:32:37.064Z,998.62
2017-05-12T05:33:17.653Z,998.62
2017-05-12T05:33:58.236Z,998.63
2017-05-12T05:34:38.823Z,998.67
2017-05-12T05:35:19.460Z,998.72
2017-05-12T05:36:00.066Z,998.76
2017-05-12T05:36:40.666Z,998.79
2017-05-12T05:37:21.256Z,998.8
2017-05-12T05:38:01.927Z,998.75
2017-05-12T05:38:42.490Z,998.8
2017-05-12T05:39:23.083Z,998.84
2017-05-12T05:40:03.666Z,998.85
2017-05-12T05:40:44.291Z,998.83
2017-05-12T05:41:24.918Z,998.87
2017-05-12T05:42:05.498Z,998.88
2017-05-12T05:42:46.110Z,998.88
2017-05-12T05:43:26.726Z,998.84
2017-05-12T05:44:07.330Z,998.84
2017-05-12T05:44:47.967Z,998.88
2017-05-12T05:45:28.517Z,998.87
2017-05-12T05:46:09.116Z,998.85
2017-05-12T05:46:49.696Z,998.84
2017-05-12T05:47:30.312Z,998.87
2017-05-12T05:48:10.918Z,998.89
2017-05-12T05:48:51.497Z,998.85
2017-05-12T05:49:32.149Z,998.84
2017-05-12T05:50:12.758Z,998.91
2017-05-12T05:50:53.390Z,998.9
2017-05-12T05:51:33.985Z,998.94
2017-05-12T05:52:14.564Z,998.98
2017-05-12T05:52:55.151Z,998.91
2017-05-12T05:53:35.761Z,998.91
2017-05-12T05:54:16.348Z,998.9
2017-05-12T05:54:56.943Z,998.89
2017-05-12T05:55:37.544Z,998.91
2017-05-12T05:56:18.156Z,998.91
2017-05-12T05:56:58.725Z,998.95
2017-05-12T05:57:39.384Z,998.92
2017-05-12T05:58:20.004Z,999
2017-05-12T05:59:00.600Z,999
2017-05-12T05:59:41.168Z,999
2017-05-12T06:00:21.757Z,998.97
2017-05-12T06:01:02.359Z,998.95
2017-05-12T06:01:42.965Z,998.95
2017-05-12T06:02:23.550Z,999
2017-05-12T06:03:04.170Z,999.02
2017-05-12T06:03:44.768Z,999.06
2017-05-12T06:04:25.374Z,999.06
2017-05-12T06:05:05.978Z,999.12
2017-05-12T06:05:46.539Z,999.15
2017-05-12T06:06:27.141Z,999.21
2017-05-12T06:07:07.774Z,999.1
2017-05-12T06:07:48.358Z,999.18
2017-05-12T06:08:28.954Z,999.06
2017-05-12T06:09:09.548Z,998.99
2017-05-12T06:09:50.177Z,999.04
2017-05-12T06:10:30.749Z,999.01
2017-05-12T06:11:11.400Z,999.06
2017-05-12T06:11:52.034Z,999.03
2017-05-12T06:12:32.617Z,999.09
2017-05-12T06:13:13.217Z,999.05
2017-05-12T06:13:53.815Z,999.09
2017-05-12T06:14:34.417Z,999.07
2017-05-12T06:15:15.008Z,999.05
2017-05-12T06:15:55.624Z,999.07
2017-05-12T06:16:36.207Z,999.1
2017-05-12T06:17:16.769Z,999.06
2017-05-12T06:17:57.393Z,999.09
2017-05-12T06:18:37.982Z,999.06
2017-05-12T06:19:18.549Z,999.1
2017-05-12T06:19:59.142Z,999.1
2017-05-12T06:20:39.744Z,999.13
2017-05-12T06:21:20.342Z,999.12
2017-05-12T06:22:00.907Z,999.23
2017-05-12T06:22:41.486Z,999.28
2017-05-12T06:23:22.071Z,999.25
2017-05-12T06:24:02.725Z,999.41
2017-05-12T06:24:43.312Z,999.65
2017-05-12T06:25:23.933Z,999.91
2017-05-12T06:26:04.531Z,999.86
2017-05-12T06:26:45.127Z,999.57
2017-05-12T06:27:25.713Z,999.31
2017-05-12T06:28:06.299Z,999.29
2017-05-12T06:28:46.915Z,999.33
2017-05-12T06:29:27.548Z,999.29
2017-05-12T06:30:08.128Z,999.33
2017-05-12T06:30:48.726Z,999.32
2017-05-12T06:31:29.332Z,999.34
2017-05-12T06:32:09.923Z,999.4
2017-05-12T06:32:50.543Z,999.41
2017-05-12T06:33:31.151Z,999.4
2017-05-12T06:34:11.759Z,999.41
2017-05-12T06:34:52.363Z,999.39
2017-05-12T06:35:32.950Z,999.4
2017-05-12T06:36:13.586Z,999.44
2017-05-12T06:36:54.242Z,999.42
2017-05-12T06:37:34.849Z,999.41
2017-05-12T06:38:15.473Z,999.45
2017-05-12T06:38:56.048Z,999.43
2017-05-12T06:39:36.682Z,999.48
2017-05-12T06:40:17.302Z,999.5
2017-05-12T06:40:57.944Z,999.51
2017-05-12T06:41:38.538Z,999.45
2017-05-12T06:42:19.124Z,999.48
2017-05-12T06:42:59.714Z,999.46
2017-05-12T06:43:40.315Z,999.48
2017-05-12T06:44:20.923Z,999.46
2017-05-12T06:45:01.548Z,999.43
2017-05-12T06:45:42.177Z,999.41
2017-05-12T06:46:22.791Z,999.41
2017-05-12T06:47:03.395Z,999.42
2017-05-12T06:47:44.016Z,999.41
2017-05-12T06:48:24.599Z,999.42
2017-05-12T06:49:05.263Z,999.39
2017-05-12T06:49:45.997Z,999.43
2017-05-12T06:50:26.590Z,999.41
2017-05-12T06:51:07.178Z,999.42
2017-05-12T06:51:47.763Z,999.45
2017-05-12T06:52:28.364Z,999.43
2017-05-12T06:53:08.941Z,999.49
2017-05-12T06:53:49.528Z,999.43
2017-05-12T06:54:30.150Z,999.45
2017-05-12T06:55:10.739Z,999.5
2017-05-12T06:55:51.329Z,999.54
2017-05-12T06:56:31.918Z,999.49
2017-05-12T06:57:12.528Z,999.53
2017-05-12T06:57:53.108Z,999.57
2017-05-12T06:58:33.693Z,999.5
2017-05-12T06:59:14.293Z,999.54
2017-05-12T06:59:54.890Z,999.51
2017-05-12T07:00:35.492Z,999.58
2017-05-12T07:01:16.090Z,999.53
2017-05-12T07:01:56.710Z,999.56
2017-05-12T07:02:37.302Z,999.61
2017-05-12T07:03:17.894Z,999.59
2017-05-12T07:03:58.508Z,999.65
2017-05-12T07:04:39.040Z,999.64
2017-05-12T07:05:19.623Z,999.64
2017-05-12T07:06:00.248Z,999.61
2017-05-12T07:06:40.837Z,999.66
2017-05-12T07:07:21.448Z,999.66
2017-05-12T07:08:02.025Z,999.64
2017-05-12T07:08:42.629Z,999.6
2017-05-12T07:09:23.267Z,999.59
2017-05-12T07:10:03.877Z,999.59
2017-05-12T07:10:44.485Z,999.58
2017-05-12T07:11:25.049Z,999.56
2017-05-12T07:12:05.648Z,999.59
2017-05-12T07:12:46.239Z,999.6
2017-05-12T07:13:26.850Z,999.61
2017-05-12T07:14:07.493Z,999.59
2017-05-12T07:14:48.110Z,999.62
2017-05-12T07:15:28.706Z,999.69
2017-05-12T07:16:09.309Z,999.61
2017-05-12T07:16:50.023Z,999.66
2017-05-12T07:17:30.654Z,999.65
2017-05-12T07:18:11.265Z,999.63
2017-05-12T07:18:51.871Z,999.72
2017-05-12T07:19:32.516Z,999.64
2017-05-12T07:20:13.151Z,999.77
2017-05-12T07:20:53.776Z,999.75
2017-05-12T07:21:34.368Z,999.65
2017-05-12T07:22:14.975Z,999.73
2017-05-12T07:22:55.548Z,999.72
2017-05-12T07:23:36.178Z,999.71
2017-05-12T07:24:16.875Z,999.67
2017-05-12T07:24:57.606Z,999.75
2017-05-12T07:25:38.194Z,999.75
2017-05-12T07:26:18.952Z,999.76
2017-05-12T07:26:59.677Z,999.75
2017-05-12T07:27:40.279Z,999.77
2017-05-12T07:28:20.862Z,999.78
2017-05-12T07:29:01.457Z,999.82
2017-05-12T07:29:42.147Z,999.76
2017-05-12T07:30:22.947Z,999.79
2017-05-12T07:31:03.629Z,999.8
2017-05-12T07:31:44.302Z,999.8
2017-05-12T07:32:24.918Z,999.75
2017-05-12T07:33:05.614Z,999.75
2017-05-12T07:33:46.237Z,999.78
2017-05-12T07:34:26.891Z,999.8
2017-05-12T07:35:07.862Z,999.83
2017-05-12T07:35:48.500Z,999.81
2017-05-12T07:36:29.093Z,999.82
2017-05-12T07:37:09.693Z,999.83
2017-05-12T07:37:50.294Z,999.81
2017-05-12T07:38:30.880Z,999.84
2017-05-12T07:39:11.840Z,999.84
2017-05-12T07:39:52.408Z,999.87
2017-05-12T07:40:33.046Z,999.86
2017-05-12T07:41:13.690Z,999.81
2017-05-12T07:41:54.282Z,999.83
2017-05-12T07:42:34.875Z,999.87
2017-05-12T07:43:15.547Z,999.86
2017-05-12T07:43:56.168Z,999.86
2017-05-12T07:44:36.802Z,999.89
2017-05-12T07:45:17.428Z,999.86
2017-05-12T07:45:58.041Z,999.84
2017-05-12T07:46:38.714Z,999.86
2017-05-12T07:47:19.274Z,999.85
2017-05-12T07:47:59.869Z,999.82
2017-05-12T07:48:40.451Z,999.79
2017-05-12T07:49:21.037Z,999.78
2017-05-12T07:50:02.062Z,999.83
2017-05-12T07:50:42.649Z,999.78
2017-05-12T07:51:23.247Z,999.8
2017-05-12T07:52:03.859Z,999.8
2017-05-12T07:52:44.442Z,999.82
2017-05-12T07:53:25.056Z,999.78
2017-05-12T07:54:05.655Z,999.77
2017-05-12T07:54:46.323Z,999.72
2017-05-12T07:55:26.965Z,999.75
2017-05-12T07:56:07.632Z,999.79
2017-05-12T07:56:48.246Z,999.78
2017-05-12T07:57:28.844Z,999.75
2017-05-12T07:58:09.450Z,999.75
2017-05-12T07:58:50.024Z,999.74
2017-05-12T07:59:30.622Z,999.78
2017-05-12T08:00:11.255Z,999.75
2017-05-12T08:00:51.848Z,999.72
2017-05-12T08:01:32.457Z,999.73
2017-05-12T08:02:13.074Z,999.7
2017-05-12T08:02:53.697Z,999.66
2017-05-12T08:03:34.291Z,999.66
2017-05-12T08:04:14.872Z,999.68
2017-05-12T08:04:55.503Z,999.69
2017-05-12T08:05:36.134Z,999.68
2017-05-12T08:06:16.764Z,999.64
2017-05-12T08:06:57.421Z,999.67
2017-05-12T08:07:38.069Z,999.69
2017-05-12T08:08:18.739Z,999.7
2017-05-12T08:08:59.320Z,999.72
2017-05-12T08:09:39.928Z,999.7
2017-05-12T08:10:20.612Z,999.69
2017-05-12T08:11:01.227Z,999.66
2017-05-12T08:11:41.815Z,999.63
2017-05-12T08:12:22.431Z,999.62
2017-05-12T08:13:03.125Z,999.65
2017-05-12T08:13:44.344Z,999.67
2017-05-12T08:14:24.975Z,999.65
2017-05-12T08:15:05.604Z,999.62
2017-05-12T08:15:46.209Z,999.62
2017-05-12T08:16:26.805Z,999.65
2017-05-12T08:17:07.385Z,999.65
2017-05-12T08:17:47.994Z,999.65
2017-05-12T08:18:28.600Z,999.68
2017-05-12T08:19:09.225Z,999.59
2017-05-12T08:19:49.831Z,999.66
2017-05-12T08:20:30.449Z,999.64
2017-05-12T08:21:11.214Z,999.64
2017-05-12T08:21:51.829Z,999.63
2017-05-12T08:22:32.412Z,999.61
2017-05-12T08:23:12.991Z,999.61
2017-05-12T08:23:53.605Z,999.62
2017-05-12T08:24:34.206Z,999.63
2017-05-12T08:25:15.124Z,999.6
2017-05-12T08:25:55.759Z,999.58
2017-05-12T08:26:36.369Z,999.61
2017-05-12T08:27:16.983Z,999.57
2017-05-12T08:27:57.571Z,999.59
2017-05-12T08:28:38.206Z,999.55